Time;durP1;ratioP1;P1;durP2;ratioP2;P2;SDS_P1;SDS_P2;PMS_P1;PMS_P2;Temp;Humidity;BMP_temperature;BMP_pressure;BME280_temperature;BME280_humidity;BME280_pressure;Samples;Min_cycle;Max_cycle;Signal;HPM_P1;HPM_P2
2023/02/20 00:01:02;;;;;;;;;;;;;;;;;;5074466;28;1859;-44
2023/02/20 00:03:30;;;;;;;;;;;;;;;;;;5074389;28;2050;-47
2023/02/20 00:05:57;;;;;;;;;;;;;;;;;;5088328;28;1898;-42
2023/02/20 00:08:24;;;;;;;;;;;;;;;;;;5094542;28;1926;-42
2023/02/20 00:10:51;;;;;;;;;;;;;;;;;;5094550;28;2298;-45
2023/02/20 00:13:19;;;;;;;;;;;;;;;;;;5076586;28;2042;-44
2023/02/20 00:15:46;;;;;;;;;;;;;;;;;;5094413;28;1884;-44
2023/02/20 00:18:13;;;;;;;;;;;;;;;;;;5094476;28;1742;-41
2023/02/20 00:20:40;;;;;;;;;;;;;;;;;;5094599;28;2421;-42
2023/02/20 00:23:08;;;;;;;;;;;;;;;;;;5094206;28;2197;-43
2023/02/20 00:25:35;;;;;;;;;;;;;;;;;;5094407;28;2171;-46
2023/02/20 00:28:02;;;;;;;;;;;;;;;;;;5094237;28;1631;-41
2023/02/20 00:30:29;;;;;;;;;;;;;;;;;;5094419;28;1978;-44
2023/02/20 00:32:57;;;;;;;;;;;;;;;;;;5094011;28;1923;-41
2023/02/20 00:35:26;;;;;;;;;;;;;;;;;;5093775;28;1928;-41
2023/02/20 00:37:54;;;;;;;;;;;;;;;;;;5094179;28;1660;-41
2023/02/20 00:40:22;;;;;;;;;;;;;;;;;;5093999;28;1813;-41
2023/02/20 00:42:50;;;;;;;;;;;;;;;;;;5094077;28;1798;-41
2023/02/20 00:45:17;;;;;;;;;;;;;;;;;;5093865;28;1727;-47
2023/02/20 00:47:44;;;;;;;;;;;;;;;;;;5093862;28;1826;-42
2023/02/20 00:50:12;;;;;;;;;;;;;;;;;;5094004;28;2078;-45
2023/02/20 00:52:39;;;;;;;;;;;;;;;;;;5093724;28;1974;-45
2023/02/20 00:55:07;;;;;;;;;;;;;;;;;;5093503;28;2056;-42
2023/02/20 00:57:34;;;;;;;;;;;;;;;;;;5093695;28;2338;-44
2023/02/20 01:00:03;;;;;;;;;;;;;;;;;;5075398;28;1842;-42
2023/02/20 01:02:30;;;;;;;;;;;;;;;;;;5093304;28;1711;-43
2023/02/20 01:04:57;;;;;;;;;;;;;;;;;;5087617;28;2080;-48
2023/02/20 01:07:24;;;;;;;;;;;;;;;;;;5073507;28;1824;-44
2023/02/20 01:09:51;;;;;;;;;;;;;;;;;;5054985;28;1746;-45
2023/02/20 01:12:18;;;;;;;;;;;;;;;;;;5073210;28;1913;-42
2023/02/20 01:14:46;;;;;;;;;;;;;;;;;;5073105;28;1852;-46
2023/02/20 01:17:13;;;;;;;;;;;;;;;;;;5073099;28;1913;-42
2023/02/20 01:19:42;;;;;;;;;;;;;;;;;;5055172;28;2241;-46
2023/02/20 01:22:10;;;;;;;;;;;;;;;;;;5073068;28;1818;-42
2023/02/20 01:24:37;;;;;;;;;;;;;;;;;;5072856;28;2179;-41
2023/02/20 01:27:04;;;;;;;;;;;;;;;;;;5072669;28;1516;-44
2023/02/20 01:29:31;;;;;;;;;;;;;;;;;;5072783;28;1823;-39
2023/02/20 01:31:58;;;;;;;;;;;;;;;;;;5054729;28;1979;-42
2023/02/20 01:34:26;;;;;;;;;;;;;;;;;;5072712;28;1427;-44
2023/02/20 01:36:55;;;;;;;;;;;;;;;;;;5072521;28;1845;-42
2023/02/20 01:39:25;;;;;;;;;;;;;;;;;;5072687;28;1698;-43
2023/02/20 01:42:16;;;;;;;;;;;;;;;;;;5072534;28;1963;-42
2023/02/20 01:44:44;;;;;;;;;;;;;;;;;;5054555;28;1835;-42
2023/02/20 01:47:18;;;;;;;;;;;;;;;;;;5072613;28;2021;-42
2023/02/20 01:50:02;;;;;;;;;;;;;;;;;;5072426;28;2142;-45
2023/02/20 01:52:37;;;;;;;;;;;;;;;;;;5053837;28;1902;-47
2023/02/20 01:55:08;;;;;;;;;;;;;;;;;;5054209;28;2090;-42
2023/02/20 01:57:36;;;;;;;;;;;;;;;;;;5072337;28;2021;-43
2023/02/20 02:00:10;;;;;;;;;;;;;;;;;;5054239;28;1718;-43
2023/02/20 02:02:43;;;;;;;;;;;;;;;;;;5072242;28;1615;-46
2023/02/20 02:05:10;;;;;;;;;;;;;;;;;;5072147;28;1486;-43
2023/02/20 02:07:38;;;;;;;;;;;;;;;;;;5071935;28;1950;-44
2023/02/20 02:10:06;;;;;;;;;;;;;;;;;;5072046;28;1791;-45
2023/02/20 02:12:34;;;;;;;;;;;;;;;;;;5071984;28;2233;-40
2023/02/20 02:15:01;;;;;;;;;;;;;;;;;;5053881;28;1968;-44
2023/02/20 02:17:43;;;;;;;;;;;;;;;;;;5071895;28;1681;-41
2023/02/20 02:20:26;;;;;;;;;;;;;;;;;;5071965;28;1793;-43
2023/02/20 02:23:01;;;;;;;;;;;;;;;;;;5070198;28;1969;-40
2023/02/20 02:25:31;;;;;;;;;;;;;;;;;;5070599;28;2110;-44
2023/02/20 02:28:19;;;;;;;;;;;;;;;;;;5071507;28;2130;-42
2023/02/20 02:30:49;;;;;;;;;;;;;;;;;;5070290;28;1934;-45
2023/02/20 02:33:22;;;;;;;;;;;;;;;;;;5071708;28;1915;-47
2023/02/20 02:36:03;;;;;;;;;;;;;;;;;;5090790;28;1702;-41
2023/02/20 02:38:42;;;;;;;;;;;;;;;;;;5091674;28;1817;-43
2023/02/20 02:41:19;;;;;;;;;;;;;;;;;;5073811;28;1818;-41
2023/02/20 02:43:58;;;;;;;;;;;;;;;;;;5091860;28;1708;-42
2023/02/20 02:46:33;;;;;;;;;;;;;;;;;;5091534;28;1967;-42
2023/02/20 02:49:16;;;;;;;;;;;;;;;;;;5091525;28;1685;-44
2023/02/20 02:51:46;;;;;;;;;;;;;;;;;;5073511;28;1597;-42
2023/02/20 02:54:25;;;;;;;;;;;;;;;;;;5073339;28;2280;-44
2023/02/20 02:56:53;;;;;;;;;;;;;;;;;;5091397;28;1771;-47
2023/02/20 02:59:26;;;;;;;;;;;;;;;;;;5084723;28;2480;-47
2023/02/20 03:01:58;;;;;;;;;;;;;;;;;;5071256;28;1999;-46
2023/02/20 03:04:27;;;;;;;;;;;;;;;;;;5071532;28;1783;-42
2023/02/20 03:06:59;;;;;;;;;;;;;;;;;;5091707;28;2006;-48
2023/02/20 03:09:29;;;;;;;;;;;;;;;;;;5091339;28;1616;-41
2023/02/20 03:11:58;;;;;;;;;;;;;;;;;;5091316;28;2277;-49
2023/02/20 03:17:29;;;;;;;;;;;;;;;;;;5090040;28;2012;-43
2023/02/20 03:19:58;;;;;;;;;;;;;;;;;;5071078;28;1867;-42
2023/02/20 03:22:31;;;;;;;;;;;;;;;;;;5070927;28;1936;-45
2023/02/20 03:25:03;;;;;;;;;;;;;;;;;;5071048;28;2105;-43
2023/02/20 03:27:56;;;;;;;;;;;;;;;;;;5052847;28;2168;-44
2023/02/20 03:30:44;;;;;;;;;;;;;;;;;;5070921;28;2129;-40
2023/02/20 03:44:30;;;;;;;;;;;;;;;;;;5052916;28;2245;-45
2023/02/20 03:46:58;;;;;;;;;;;;;;;;;;5070737;28;1449;-51
2023/02/20 03:49:30;;;;;;;;;;;;;;;;;;5052632;28;1670;-43
2023/02/20 03:51:57;;;;;;;;;;;;;;;;;;5052540;28;1822;-40
2023/02/20 03:54:39;;;;;;;;;;;;;;;;;;5070532;28;1911;-43
2023/02/20 03:57:12;;;;;;;;;;;;;;;;;;5070742;28;1962;-42
2023/02/20 03:59:52;;;;;;;;;;;;;;;;;;5069478;28;1994;-43
2023/02/20 04:02:21;;;;;;;;;;;;;;;;;;5052562;28;2150;-44
2023/02/20 04:04:51;;;;;;;;;;;;;;;;;;5056736;28;2176;-44
2023/02/20 04:07:24;;;;;;;;;;;;;;;;;;5090975;28;1701;-44
2023/02/20 04:09:52;;;;;;;;;;;;;;;;;;5072336;28;2267;-42
2023/02/20 04:12:21;;;;;;;;;;;;;;;;;;5072456;28;1506;-39
2023/02/20 04:14:50;;;;;;;;;;;;;;;;;;5072966;28;2012;-45
2023/02/20 04:17:21;;;;;;;;;;;;;;;;;;5076341;28;1847;-44
2023/02/20 04:19:49;;;;;;;;;;;;;;;;;;5076225;28;1822;-43
2023/02/20 04:22:21;;;;;;;;;;;;;;;;;;5094492;28;2136;-41
2023/02/20 04:24:53;;;;;;;;;;;;;;;;;;5076192;28;1552;-46
2023/02/20 04:27:22;;;;;;;;;;;;;;;;;;5071981;28;2256;-47
2023/02/20 04:29:54;;;;;;;;;;;;;;;;;;5056261;28;2010;-44
2023/02/20 04:32:21;;;;;;;;;;;;;;;;;;5079324;28;1955;-43
2023/02/20 04:34:50;;;;;;;;;;;;;;;;;;5069100;28;1977;-40
2023/02/20 04:37:18;;;;;;;;;;;;;;;;;;5052452;28;1999;-46
2023/02/20 04:39:51;;;;;;;;;;;;;;;;;;5052368;28;1753;-42
2023/02/20 04:42:20;;;;;;;;;;;;;;;;;;5052454;28;2118;-46
2023/02/20 04:44:48;;;;;;;;;;;;;;;;;;5052449;28;2001;-44
2023/02/20 04:47:17;;;;;;;;;;;;;;;;;;5052349;28;1913;-46
2023/02/20 04:49:44;;;;;;;;;;;;;;;;;;5052196;28;2051;-44
2023/02/20 04:52:16;;;;;;;;;;;;;;;;;;5068808;28;1542;-43
2023/02/20 04:54:45;;;;;;;;;;;;;;;;;;5052153;28;1918;-46
2023/02/20 04:57:14;;;;;;;;;;;;;;;;;;5052336;28;2024;-43
2023/02/20 04:59:41;;;;;;;;;;;;;;;;;;5069052;28;2002;-41
2023/02/20 05:02:09;;;;;;;;;;;;;;;;;;5051899;28;1998;-46
2023/02/20 05:04:37;;;;;;;;;;;;;;;;;;5056104;28;1760;-42
2023/02/20 05:07:04;;;;;;;;;;;;;;;;;;5073240;28;2348;-47
2023/02/20 05:09:32;;;;;;;;;;;;;;;;;;5073318;28;2065;-42
2023/02/20 05:11:59;;;;;;;;;;;;;;;;;;5073188;28;1841;-41
2023/02/20 05:14:26;;;;;;;;;;;;;;;;;;5073161;28;1888;-42
2023/02/20 05:16:53;;;;;;;;;;;;;;;;;;5072921;28;1867;-41
2023/02/20 05:19:21;;;;;;;;;;;;;;;;;;5072782;28;1771;-43
2023/02/20 05:24:33;;;;;;;;;;;;;;;;;;5073001;28;1928;-47
2023/02/20 05:27:00;;;;;;;;;;;;;;;;;;5071907;28;1940;-45
2023/02/20 05:29:28;;;;;;;;;;;;;;;;;;5072779;28;1781;-43
2023/02/20 05:31:55;;;;;;;;;;;;;;;;;;5072920;28;1789;-51
2023/02/20 05:34:24;;;;;;;;;;;;;;;;;;5076400;28;1894;-45
2023/02/20 05:36:52;;;;;;;;;;;;;;;;;;5093012;28;1957;-47
2023/02/20 05:39:20;;;;;;;;;;;;;;;;;;5092976;28;1717;-44
2023/02/20 05:41:48;;;;;;;;;;;;;;;;;;5092646;28;1844;-41
2023/02/20 05:44:15;;;;;;;;;;;;;;;;;;5092989;28;2016;-43
2023/02/20 05:46:42;;;;;;;;;;;;;;;;;;5092969;28;1376;-43
2023/02/20 05:49:10;;;;;;;;;;;;;;;;;;5092614;28;2211;-42
2023/02/20 05:51:37;;;;;;;;;;;;;;;;;;5092708;28;1847;-46
2023/02/20 05:54:04;;;;;;;;;;;;;;;;;;5092316;28;1911;-41
2023/02/20 05:56:32;;;;;;;;;;;;;;;;;;5092390;28;2031;-43
2023/02/20 05:58:59;;;;;;;;;;;;;;;;;;5092600;28;1631;-44
2023/02/20 06:01:28;;;;;;;;;;;;;;;;;;5092482;28;2002;-40
2023/02/20 06:03:55;;;;;;;;;;;;;;;;;;5092365;28;2161;-42
2023/02/20 06:06:23;;;;;;;;;;;;;;;;;;5074600;28;1954;-44
2023/02/20 06:08:50;;;;;;;;;;;;;;;;;;5072030;28;1827;-43
2023/02/20 06:11:17;;;;;;;;;;;;;;;;;;5072104;28;1735;-41
2023/02/20 06:13:45;;;;;;;;;;;;;;;;;;5072096;28;2185;-46
2023/02/20 06:16:12;;;;;;;;;;;;;;;;;;5072324;28;1930;-44
2023/02/20 06:18:41;;;;;;;;;;;;;;;;;;5071974;28;1832;-42
2023/02/20 06:21:09;;;;;;;;;;;;;;;;;;5071837;28;1933;-40
2023/02/20 06:23:37;;;;;;;;;;;;;;;;;;5071488;28;1984;-45
2023/02/20 06:26:05;;;;;;;;;;;;;;;;;;5071229;28;1616;-48
2023/02/20 06:28:33;;;;;;;;;;;;;;;;;;5071545;28;1697;-42
2023/02/20 06:31:00;;;;;;;;;;;;;;;;;;5071586;28;1971;-48
2023/02/20 06:33:28;;;;;;;;;;;;;;;;;;5071692;28;2021;-42
2023/02/20 06:35:55;;;;;;;;;;;;;;;;;;5071225;28;1976;-45
2023/02/20 06:38:23;;;;;;;;;;;;;;;;;;5071593;28;1715;-42
2023/02/20 06:40:50;;;;;;;;;;;;;;;;;;5071492;28;1777;-43
2023/02/20 06:43:18;;;;;;;;;;;;;;;;;;5071521;28;1773;-43
2023/02/20 06:45:45;;;;;;;;;;;;;;;;;;5071592;28;1689;-40
2023/02/20 06:48:13;;;;;;;;;;;;;;;;;;5071552;28;1755;-41
2023/02/20 06:50:40;;;;;;;;;;;;;;;;;;5071339;28;1612;-47
2023/02/20 06:53:08;;;;;;;;;;;;;;;;;;5071334;28;1891;-46
2023/02/20 06:55:35;;;;;;;;;;;;;;;;;;5071142;28;1969;-42
2023/02/20 06:58:02;;;;;;;;;;;;;;;;;;5071313;28;1754;-44
2023/02/20 07:00:30;;;;;;;;;;;;;;;;;;5071723;28;1851;-42
2023/02/20 07:02:57;;;;;;;;;;;;;;;;;;5071193;28;1717;-43
2023/02/20 07:05:24;;;;;;;;;;;;;;;;;;5080478;28;1999;-42
2023/02/20 07:07:51;;;;;;;;;;;;;;;;;;5091169;28;1959;-42
2023/02/20 07:10:18;;;;;;;;;;;;;;;;;;5091412;28;2097;-41
2023/02/20 07:12:45;;;;;;;;;;;;;;;;;;5091135;28;1777;-42
2023/02/20 07:15:13;;;;;;;;;;;;;;;;;;5091431;28;2038;-44
2023/02/20 07:17:40;;;;;;;;;;;;;;;;;;5091250;28;1641;-42
2023/02/20 07:20:07;;;;;;;;;;;;;;;;;;5074995;28;9837;-44
2023/02/20 07:22:34;;;;;;;;;;;;;;;;;;5091335;28;2267;-42
2023/02/20 07:25:01;;;;;;;;;;;;;;;;;;5091048;28;1480;-46
2023/02/20 07:27:28;;;;;;;;;;;;;;;;;;5091223;28;1730;-44
2023/02/20 07:29:56;;;;;;;;;;;;;;;;;;5091151;28;1818;-45
2023/02/20 07:32:23;;;;;;;;;;;;;;;;;;5090921;28;1970;-45
2023/02/20 07:34:50;;;;;;;;;;;;;;;;;;5090978;28;2110;-46
2023/02/20 07:37:31;;;;;;;;;;;;;;;;;;5072882;28;2150;-45
2023/02/20 07:39:58;;;;;;;;;;;;;;;;;;5072399;28;1930;-40
2023/02/20 07:42:25;;;;;;;;;;;;;;;;;;5071300;28;1707;-47
2023/02/20 07:45:06;;;;;;;;;;;;;;;;;;5070889;28;1371;-45
2023/02/20 07:47:33;;;;;;;;;;;;;;;;;;5070885;28;1944;-41
2023/02/20 07:50:00;;;;;;;;;;;;;;;;;;5071696;28;1456;-45
2023/02/20 07:52:27;;;;;;;;;;;;;;;;;;5074658;28;1451;-47
2023/02/20 07:54:55;;;;;;;;;;;;;;;;;;5092972;28;2216;-44
2023/02/20 07:57:22;;;;;;;;;;;;;;;;;;5094595;28;1664;-42
2023/02/20 07:59:49;;;;;;;;;;;;;;;;;;5094887;28;2095;-47
2023/02/20 08:02:16;;;;;;;;;;;;;;;;;;5094901;28;2386;-44
2023/02/20 08:04:43;;;;;;;;;;;;;;;;;;5085877;28;2024;-45
2023/02/20 08:07:11;;;;;;;;;;;;;;;;;;5094971;28;2316;-44
2023/02/20 08:09:38;;;;;;;;;;;;;;;;;;5094692;28;2011;-44
2023/02/20 08:12:05;;;;;;;;;;;;;;;;;;5094607;28;1957;-48
2023/02/20 08:14:32;;;;;;;;;;;;;;;;;;5094570;28;2159;-47
2023/02/20 08:16:59;;;;;;;;;;;;;;;;;;5094698;28;1410;-43
2023/02/20 08:19:26;;;;;;;;;;;;;;;;;;5094440;28;1965;-47
2023/02/20 08:21:54;;;;;;;;;;;;;;;;;;5094344;28;2056;-46
2023/02/20 08:24:21;;;;;;;;;;;;;;;;;;5094108;28;2056;-46
2023/02/20 08:26:48;;;;;;;;;;;;;;;;;;5094452;28;2007;-48
2023/02/20 08:29:16;;;;;;;;;;;;;;;;;;5094417;28;2118;-45
2023/02/20 08:31:43;;;;;;;;;;;;;;;;;;5094311;28;2045;-45
2023/02/20 08:34:11;;;;;;;;;;;;;;;;;;5094052;28;1910;-46
2023/02/20 08:36:39;;;;;;;;;;;;;;;;;;5094188;28;1903;-43
2023/02/20 08:39:06;;;;;;;;;;;;;;;;;;5093845;28;2123;-48
2023/02/20 08:41:33;;;;;;;;;;;;;;;;;;5094132;28;1935;-45
2023/02/20 08:44:00;;;;;;;;;;;;;;;;;;5093882;28;2124;-44
2023/02/20 08:46:28;;;;;;;;;;;;;;;;;;5066585;28;1795;-49
2023/02/20 08:48:55;;;;;;;;;;;;;;;;;;5073562;28;1690;-48
2023/02/20 08:51:22;;;;;;;;;;;;;;;;;;5072871;28;1710;-48
2023/02/20 08:53:49;;;;;;;;;;;;;;;;;;5073582;28;2136;-43
2023/02/20 08:56:20;;;;;;;;;;;;;;;;;;5073365;28;2129;-46
2023/02/20 08:58:47;;;;;;;;;;;;;;;;;;5073259;28;1472;-47
2023/02/20 09:01:14;;;;;;;;;;;;;;;;;;5072564;28;2004;-44
2023/02/20 09:03:42;;;;;;;;;;;;;;;;;;5073445;28;1935;-47
2023/02/20 09:06:09;;;;;;;;;;;;;;;;;;5088686;28;1610;-45
2023/02/20 09:08:37;;;;;;;;;;;;;;;;;;5093138;28;1899;-51
2023/02/20 09:11:04;;;;;;;;;;;;;;;;;;5093345;28;1987;-43
2023/02/20 09:13:33;;;;;;;;;;;;;;;;;;5093523;28;2140;-43
2023/02/20 09:16:00;;;;;;;;;;;;;;;;;;5093202;28;2208;-46
2023/02/20 09:18:27;;;;;;;;;;;;;;;;;;5093168;28;1674;-40
2023/02/20 09:20:54;;;;;;;;;;;;;;;;;;5093532;28;2136;-47
2023/02/20 09:23:24;;;;;;;;;;;;;;;;;;5075388;28;1687;-48
2023/02/20 09:25:52;;;;;;;;;;;;;;;;;;5093033;28;1859;-47
2023/02/20 09:28:19;;;;;;;;;;;;;;;;;;5092945;28;1724;-44
2023/02/20 09:30:46;;;;;;;;;;;;;;;;;;5093067;28;1952;-46
2023/02/20 09:33:14;;;;;;;;;;;;;;;;;;5093006;28;2090;-47
2023/02/20 09:35:41;;;;;;;;;;;;;;;;;;5093044;28;1909;-48
2023/02/20 09:38:08;;;;;;;;;;;;;;;;;;5092924;28;1992;-48
2023/02/20 09:40:35;;;;;;;;;;;;;;;;;;5092880;28;1805;-48
2023/02/20 09:43:21;;;;;;;;;;;;;;;;;;5093126;28;1959;-47
2023/02/20 09:46:01;;;;;;;;;;;;;;;;;;5092765;28;1662;-48
2023/02/20 09:48:42;;;;;;;;;;;;;;;;;;5092820;28;1879;-47
2023/02/20 09:51:13;;;;;;;;;;;;;;;;;;5092589;28;1660;-47
2023/02/20 09:53:46;;;;;;;;;;;;;;;;;;5093103;28;1911;-43
2023/02/20 09:56:20;;;;;;;;;;;;;;;;;;5092460;28;1996;-46
2023/02/20 09:58:51;;;;;;;;;;;;;;;;;;5092533;28;1507;-45
2023/02/20 10:01:20;;;;;;;;;;;;;;;;;;5092418;28;1323;-47
2023/02/20 10:03:53;;;;;;;;;;;;;;;;;;5092395;28;2113;-47
2023/02/20 10:06:23;;;;;;;;;;;;;;;;;;5070693;28;1634;-46
2023/02/20 10:08:51;;;;;;;;;;;;;;;;;;5071983;28;1882;-47
2023/02/20 10:11:23;;;;;;;;;;;;;;;;;;5072088;28;1641;-45
2023/02/20 10:13:54;;;;;;;;;;;;;;;;;;5071539;28;1774;-46
2023/02/20 10:16:24;;;;;;;;;;;;;;;;;;5070158;28;1973;-46
2023/02/20 10:19:01;;;;;;;;;;;;;;;;;;5071468;28;2145;-46
2023/02/20 10:21:28;;;;;;;;;;;;;;;;;;5072099;28;1877;-47
2023/02/20 10:24:00;;;;;;;;;;;;;;;;;;5071827;28;2105;-47
2023/02/20 10:26:34;;;;;;;;;;;;;;;;;;5071872;28;1821;-47
2023/02/20 10:29:13;;;;;;;;;;;;;;;;;;5071143;28;2370;-45
2023/02/20 10:31:46;;;;;;;;;;;;;;;;;;5071626;28;1494;-42
2023/02/20 10:34:22;;;;;;;;;;;;;;;;;;5053942;28;2110;-46
2023/02/20 10:36:56;;;;;;;;;;;;;;;;;;5071563;28;1670;-47
2023/02/20 10:39:23;;;;;;;;;;;;;;;;;;5071570;28;2053;-46
2023/02/20 10:42:09;;;;;;;;;;;;;;;;;;5071305;28;2143;-45
2023/02/20 10:44:49;;;;;;;;;;;;;;;;;;5071710;28;1764;-44
2023/02/20 10:47:41;;;;;;;;;;;;;;;;;;5071433;28;1678;-43
2023/02/20 10:50:13;;;;;;;;;;;;;;;;;;5071347;28;1862;-47
2023/02/20 10:52:45;;;;;;;;;;;;;;;;;;5071315;28;2175;-43
2023/02/20 10:55:26;;;;;;;;;;;;;;;;;;5071689;28;1914;-47
2023/02/20 10:57:56;;;;;;;;;;;;;;;;;;5071386;28;2055;-45
2023/02/20 11:00:31;;;;;;;;;;;;;;;;;;5071306;28;1873;-49
2023/02/20 11:03:03;;;;;;;;;;;;;;;;;;5071341;28;1935;-47
2023/02/20 11:05:33;;;;;;;;;;;;;;;;;;5081457;28;2104;-45
2023/02/20 11:08:00;;;;;;;;;;;;;;;;;;5091567;28;1845;-46
2023/02/20 11:10:27;;;;;;;;;;;;;;;;;;5091410;28;1300;-48
2023/02/20 11:13:02;;;;;;;;;;;;;;;;;;5091224;28;1790;-46
2023/02/20 11:15:31;;;;;;;;;;;;;;;;;;5091033;28;1915;-48
2023/02/20 11:17:59;;;;;;;;;;;;;;;;;;5091273;28;2010;-47
2023/02/20 11:20:37;;;;;;;;;;;;;;;;;;5091287;28;1991;-47
2023/02/20 11:23:05;;;;;;;;;;;;;;;;;;5091118;28;1949;-43
2023/02/20 11:25:36;;;;;;;;;;;;;;;;;;5093138;28;1657;-48
2023/02/20 11:28:29;;;;;;;;;;;;;;;;;;5095189;28;1924;-46
2023/02/20 11:31:01;;;;;;;;;;;;;;;;;;5092484;28;2410;-47
2023/02/20 11:33:30;;;;;;;;;;;;;;;;;;5095169;28;2245;-47
2023/02/20 11:36:09;;;;;;;;;;;;;;;;;;5095038;28;1975;-46
2023/02/20 11:38:37;;;;;;;;;;;;;;;;;;5095248;28;1897;-46
2023/02/20 11:41:19;;;;;;;;;;;;;;;;;;5095296;28;1773;-48
2023/02/20 11:43:48;;;;;;;;;;;;;;;;;;5095232;28;1621;-46
2023/02/20 11:46:26;;;;;;;;;;;;;;;;;;5076732;28;1870;-46
2023/02/20 11:49:07;;;;;;;;;;;;;;;;;;5076401;28;1917;-45
2023/02/20 11:51:40;;;;;;;;;;;;;;;;;;5094409;28;1983;-43
2023/02/20 11:54:09;;;;;;;;;;;;;;;;;;5073168;28;2481;-47
2023/02/20 11:56:37;;;;;;;;;;;;;;;;;;5074388;28;1892;-48
2023/02/20 11:59:22;;;;;;;;;;;;;;;;;;5074441;28;1938;-50
2023/02/20 12:01:50;;;;;;;;;;;;;;;;;;5074566;28;1816;-48
2023/02/20 12:04:26;;;;;;;;;;;;;;;;;;5075448;28;1843;-47
2023/02/20 12:06:56;;;;;;;;;;;;;;;;;;5094644;28;1713;-43
2023/02/20 12:09:25;;;;;;;;;;;;;;;;;;5094450;28;1733;-45
2023/02/20 12:11:53;;;;;;;;;;;;;;;;;;5094548;28;1896;-45
2023/02/20 12:14:20;;;;;;;;;;;;;;;;;;5094808;28;1776;-49
2023/02/20 12:16:57;;;;;;;;;;;;;;;;;;5094449;28;1978;-48
2023/02/20 12:19:25;;;;;;;;;;;;;;;;;;5094471;28;1867;-46
2023/02/20 12:21:55;;;;;;;;;;;;;;;;;;5094017;28;1499;-46
2023/02/20 12:24:35;;;;;;;;;;;;;;;;;;5094320;28;1904;-47
2023/02/20 12:27:08;;;;;;;;;;;;;;;;;;5094217;28;1962;-48
2023/02/20 12:29:35;;;;;;;;;;;;;;;;;;5094005;28;2115;-46
2023/02/20 12:32:32;;;;;;;;;;;;;;;;;;5094707;28;1968;-47
2023/02/20 12:35:08;;;;;;;;;;;;;;;;;;5036611;28;2095;-46
2023/02/20 12:37:53;;;;;;;;;;;;;;;;;;5073608;28;1254;-47
2023/02/20 12:40:43;;;;;;;;;;;;;;;;;;5073770;28;1816;-48
2023/02/20 12:43:16;;;;;;;;;;;;;;;;;;5073364;28;1903;-49
2023/02/20 12:45:55;;;;;;;;;;;;;;;;;;5073626;28;1521;-47
2023/02/20 12:48:25;;;;;;;;;;;;;;;;;;5073681;28;2069;-45
2023/02/20 12:50:59;;;;;;;;;;;;;;;;;;5073579;28;2090;-44
2023/02/20 12:53:45;;;;;;;;;;;;;;;;;;5073488;28;1598;-43
2023/02/20 12:56:19;;;;;;;;;;;;;;;;;;5073612;28;1978;-47
2023/02/20 12:58:52;;;;;;;;;;;;;;;;;;5073407;28;2149;-44
2023/02/20 13:01:20;;;;;;;;;;;;;;;;;;5073636;28;1641;-44
2023/02/20 13:04:06;;;;;;;;;;;;;;;;;;5073231;28;2050;-46
2023/02/20 13:06:49;;;;;;;;;;;;;;;;;;5054224;28;1844;-46
2023/02/20 13:09:23;;;;;;;;;;;;;;;;;;5052937;28;1444;-47
2023/02/20 13:11:51;;;;;;;;;;;;;;;;;;5053406;28;1819;-44
2023/02/20 13:14:24;;;;;;;;;;;;;;;;;;5053657;28;1954;-46
2023/02/20 13:16:59;;;;;;;;;;;;;;;;;;5053079;28;1969;-47
2023/02/20 13:19:32;;;;;;;;;;;;;;;;;;5053015;28;1916;-47
2023/02/20 13:21:59;;;;;;;;;;;;;;;;;;5053049;28;1585;-45
2023/02/20 13:24:27;;;;;;;;;;;;;;;;;;5052785;28;1841;-45
2023/02/20 13:26:55;;;;;;;;;;;;;;;;;;5053130;28;2028;-48
2023/02/20 13:29:27;;;;;;;;;;;;;;;;;;5052855;28;2230;-44
2023/02/20 13:31:56;;;;;;;;;;;;;;;;;;5053201;28;2155;-44
2023/02/20 13:34:29;;;;;;;;;;;;;;;;;;5056788;28;1861;-42
2023/02/20 13:36:57;;;;;;;;;;;;;;;;;;5072299;28;1975;-44
2023/02/20 13:39:24;;;;;;;;;;;;;;;;;;5072799;28;1721;-45
2023/02/20 13:41:54;;;;;;;;;;;;;;;;;;5072813;28;1992;-47
2023/02/20 13:44:27;;;;;;;;;;;;;;;;;;5055071;28;1486;-47
2023/02/20 13:46:55;;;;;;;;;;;;;;;;;;5072484;28;1825;-46
2023/02/20 13:49:42;;;;;;;;;;;;;;;;;;5071934;28;1482;-48
2023/02/20 13:52:28;;;;;;;;;;;;;;;;;;5065262;28;1497;-46
2023/02/20 13:54:56;;;;;;;;;;;;;;;;;;5072351;28;1628;-48
2023/02/20 13:57:28;;;;;;;;;;;;;;;;;;5072393;28;2023;-44
2023/02/20 13:59:56;;;;;;;;;;;;;;;;;;5072437;28;1722;-47
2023/02/20 14:02:28;;;;;;;;;;;;;;;;;;5072238;28;1581;-43
2023/02/20 14:05:00;;;;;;;;;;;;;;;;;;5072286;28;1702;-43
2023/02/20 14:07:32;;;;;;;;;;;;;;;;;;5072104;28;1932;-41
2023/02/20 14:10:00;;;;;;;;;;;;;;;;;;5071916;28;1659;-47
2023/02/20 14:12:27;;;;;;;;;;;;;;;;;;5071757;28;2104;-42
2023/02/20 14:14:55;;;;;;;;;;;;;;;;;;5072003;28;1873;-46
2023/02/20 14:17:23;;;;;;;;;;;;;;;;;;5072070;28;1938;-45
2023/02/20 14:19:58;;;;;;;;;;;;;;;;;;5071656;28;1895;-44
2023/02/20 14:22:39;;;;;;;;;;;;;;;;;;5071679;28;1810;-43
2023/02/20 14:25:07;;;;;;;;;;;;;;;;;;5071792;28;1839;-45
2023/02/20 14:27:34;;;;;;;;;;;;;;;;;;5071863;28;1905;-43
2023/02/20 14:30:04;;;;;;;;;;;;;;;;;;5071521;28;1463;-48
2023/02/20 14:32:31;;;;;;;;;;;;;;;;;;5071737;28;1970;-48
2023/02/20 14:35:06;;;;;;;;;;;;;;;;;;5078435;28;1708;-42
2023/02/20 14:37:47;;;;;;;;;;;;;;;;;;5090564;28;10683;-46
2023/02/20 14:40:23;;;;;;;;;;;;;;;;;;5086512;28;2021;-46
2023/02/20 14:42:51;;;;;;;;;;;;;;;;;;5071301;28;1788;-48
2023/02/20 14:45:20;;;;;;;;;;;;;;;;;;5071376;28;1859;-45
2023/02/20 14:47:55;;;;;;;;;;;;;;;;;;5071133;28;1807;-45
2023/02/20 14:50:22;;;;;;;;;;;;;;;;;;5071404;28;1863;-46
2023/02/20 14:53:08;;;;;;;;;;;;;;;;;;5071116;28;1951;-43
2023/02/20 14:55:35;;;;;;;;;;;;;;;;;;5071244;28;2022;-46
2023/02/20 14:58:06;;;;;;;;;;;;;;;;;;5070960;28;1760;-46
2023/02/20 15:00:35;;;;;;;;;;;;;;;;;;5071386;28;2268;-41
2023/02/20 15:03:24;;;;;;;;;;;;;;;;;;5070912;28;1826;-46
2023/02/20 15:06:01;;;;;;;;;;;;;;;;;;5085100;28;1462;-46
2023/02/20 15:08:34;;;;;;;;;;;;;;;;;;5091208;28;2239;-43
2023/02/20 15:11:07;;;;;;;;;;;;;;;;;;5090405;28;2048;-45
2023/02/20 15:13:36;;;;;;;;;;;;;;;;;;5091157;28;2117;-44
2023/02/20 15:16:11;;;;;;;;;;;;;;;;;;5091181;28;1977;-48
2023/02/20 15:18:41;;;;;;;;;;;;;;;;;;5090923;28;1822;-46
2023/02/20 15:21:09;;;;;;;;;;;;;;;;;;5091037;28;1220;-44
2023/02/20 15:23:38;;;;;;;;;;;;;;;;;;5091236;28;2017;-46
2023/02/20 15:26:26;;;;;;;;;;;;;;;;;;5091070;28;2227;-45
2023/02/20 15:29:13;;;;;;;;;;;;;;;;;;5091014;28;2167;-49
2023/02/20 15:31:40;;;;;;;;;;;;;;;;;;5090885;28;2034;-46
2023/02/20 15:34:21;;;;;;;;;;;;;;;;;;5090886;28;1988;-44
2023/02/20 15:36:49;;;;;;;;;;;;;;;;;;5090295;28;1934;-48
2023/02/20 15:39:16;;;;;;;;;;;;;;;;;;5091257;28;1475;-47
2023/02/20 15:41:47;;;;;;;;;;;;;;;;;;5090986;28;1828;-48
2023/02/20 15:44:15;;;;;;;;;;;;;;;;;;5090666;28;1735;-41
2023/02/20 15:46:42;;;;;;;;;;;;;;;;;;5091063;28;1428;-41
2023/02/20 15:49:09;;;;;;;;;;;;;;;;;;5090306;28;2128;-43
2023/02/20 15:51:46;;;;;;;;;;;;;;;;;;5090923;28;1706;-45
2023/02/20 15:54:16;;;;;;;;;;;;;;;;;;5090875;28;1680;-40
2023/02/20 15:56:43;;;;;;;;;;;;;;;;;;5090621;28;1916;-44
2023/02/20 15:59:11;;;;;;;;;;;;;;;;;;5090769;28;2269;-43
2023/02/20 16:01:38;;;;;;;;;;;;;;;;;;5090551;28;2033;-42
2023/02/20 16:04:07;;;;;;;;;;;;;;;;;;5072634;28;2070;-47
2023/02/20 16:06:34;;;;;;;;;;;;;;;;;;5071558;28;1810;-43
2023/02/20 16:09:01;;;;;;;;;;;;;;;;;;5070640;28;1810;-47
2023/02/20 16:11:34;;;;;;;;;;;;;;;;;;5072305;28;1369;-47
2023/02/20 16:14:02;;;;;;;;;;;;;;;;;;5074405;28;1930;-48
2023/02/20 16:16:33;;;;;;;;;;;;;;;;;;5074346;28;1963;-45
2023/02/20 16:19:02;;;;;;;;;;;;;;;;;;5074571;28;2130;-45
2023/02/20 16:21:29;;;;;;;;;;;;;;;;;;5074035;28;1963;-45
2023/02/20 16:23:56;;;;;;;;;;;;;;;;;;5074070;28;2102;-49
2023/02/20 16:26:27;;;;;;;;;;;;;;;;;;5074092;28;1425;-44
2023/02/20 16:28:58;;;;;;;;;;;;;;;;;;5073228;28;2141;-43
2023/02/20 16:31:46;;;;;;;;;;;;;;;;;;5074014;28;1820;-46
2023/02/20 16:34:13;;;;;;;;;;;;;;;;;;5066599;28;1520;-44
2023/02/20 16:36:47;;;;;;;;;;;;;;;;;;5073541;28;1985;-43
2023/02/20 16:39:14;;;;;;;;;;;;;;;;;;5074066;28;1740;-45
2023/02/20 16:41:52;;;;;;;;;;;;;;;;;;5073466;28;1960;-43
2023/02/20 16:44:23;;;;;;;;;;;;;;;;;;5073656;28;1879;-44
2023/02/20 16:46:50;;;;;;;;;;;;;;;;;;5073585;28;1903;-43
2023/02/20 16:49:18;;;;;;;;;;;;;;;;;;5073485;28;2092;-46
2023/02/20 16:51:49;;;;;;;;;;;;;;;;;;5073614;28;2018;-42
2023/02/20 16:54:17;;;;;;;;;;;;;;;;;;5073527;28;1955;-46
2023/02/20 16:56:44;;;;;;;;;;;;;;;;;;5073362;28;2314;-44
2023/02/20 16:59:11;;;;;;;;;;;;;;;;;;5090785;28;1477;-47
2023/02/20 17:01:38;;;;;;;;;;;;;;;;;;5093768;28;2042;-43
2023/02/20 17:04:08;;;;;;;;;;;;;;;;;;5093776;28;1856;-46
2023/02/20 17:06:35;;;;;;;;;;;;;;;;;;5074275;28;1401;-44
2023/02/20 17:09:03;;;;;;;;;;;;;;;;;;5073466;28;1858;-44
2023/02/20 17:11:30;;;;;;;;;;;;;;;;;;5073128;28;1947;-43
2023/02/20 17:13:57;;;;;;;;;;;;;;;;;;5073055;28;2113;-43
2023/02/20 17:16:24;;;;;;;;;;;;;;;;;;5073015;28;2008;-46
2023/02/20 17:18:58;;;;;;;;;;;;;;;;;;5072866;28;2090;-46
2023/02/20 17:21:25;;;;;;;;;;;;;;;;;;5073170;28;1617;-47
2023/02/20 17:23:53;;;;;;;;;;;;;;;;;;5054186;28;2126;-44
2023/02/20 17:26:20;;;;;;;;;;;;;;;;;;5072750;28;1916;-45
2023/02/20 17:28:47;;;;;;;;;;;;;;;;;;5072880;28;1715;-43
2023/02/20 17:31:14;;;;;;;;;;;;;;;;;;5072606;28;1789;-45
2023/02/20 17:33:42;;;;;;;;;;;;;;;;;;5072832;28;1953;-46
2023/02/20 17:36:09;;;;;;;;;;;;;;;;;;5072336;28;1919;-45
2023/02/20 17:38:40;;;;;;;;;;;;;;;;;;5072223;28;1573;-45
2023/02/20 17:41:07;;;;;;;;;;;;;;;;;;5072681;28;1597;-43
2023/02/20 17:43:34;;;;;;;;;;;;;;;;;;5072735;28;1934;-47